Time;durP1;ratioP1;P1;durP2;ratioP2;P2;SDS_P1;SDS_P2;PMS_P1;PMS_P2;Temp;Humidity;BMP_temperature;BMP_pressure;BME280_temperature;BME280_humidity;BME280_pressure;Samples;Min_cycle;Max_cycle;Signal;HPM_P1;HPM_P2
2023/02/18 00:01:29;;;;;;;23.23;18.30;;;;;;;5.83;100.00;100883.66;4999465;28;20058;-77
2023/02/18 00:03:57;;;;;;;28.33;19.42;;;;;;;6.24;100.00;100968.16;5003209;28;20046;-77
2023/02/18 00:06:27;;;;;;;29.83;18.17;;;;;;;6.18;100.00;100961.91;5003919;28;20042;-78
2023/02/18 00:08:53;;;;;;;20.13;12.27;;;;;;;5.39;100.00;100860.78;5004478;28;20382;-77
2023/02/18 00:11:20;;;;;;;28.05;19.55;;;;;;;5.75;100.00;100934.66;5004822;28;20041;-76
2023/02/18 00:13:55;;;;;;;29.05;16.42;;;;;;;5.58;100.00;100929.88;4983905;28;20088;-78
2023/02/18 00:16:22;;;;;;;19.90;13.63;;;;;;;5.16;100.00;100851.44;5002677;28;20056;-76
2023/02/18 00:18:47;;;;;;;34.20;21.45;;;;;;;5.43;100.00;100908.59;4981435;28;20092;-75
2023/02/18 00:21:13;;;;;;;30.38;19.10;;;;;;;5.33;100.00;100876.22;4974800;28;20645;-79
2023/02/18 00:23:38;;;;;;;23.60;15.40;;;;;;;4.73;100.00;100767.88;4981295;28;20042;-79
2023/02/18 00:26:10;;;;;;;24.85;12.20;;;;;;;5.19;100.00;100872.34;4989407;28;20050;-79
2023/02/18 00:28:36;;;;;;;36.88;20.73;;;;;;;5.28;100.00;100898.63;4981727;28;20056;-79
2023/02/18 00:31:16;;;;;;;23.45;12.63;;;;;;;5.16;100.00;100856.66;4990154;28;20589;-78
2023/02/18 00:33:42;;;;;;;19.23;12.57;;;;;;;5.60;100.00;100928.19;4983141;28;20146;-79
2023/02/18 00:36:10;;;;;;;19.42;13.32;;;;;;;5.50;100.00;100894.91;4984729;28;20099;-79
2023/02/18 00:38:36;;;;;;;24.13;12.90;;;;;;;4.97;100.00;100811.91;5006332;28;20137;-77
2023/02/18 00:41:03;;;;;;;20.85;11.77;;;;;;;5.79;100.00;100920.91;5007207;28;20132;-79
2023/02/18 00:43:28;;;;;;;23.45;15.88;;;;;;;5.35;100.00;100804.28;5000060;28;20038;-80
2023/02/18 00:45:54;;;;;;;14.80;10.23;;;;;;;5.23;100.00;100780.53;4996131;28;20101;-78
2023/02/18 00:48:19;;;;;;;18.48;12.70;;;;;;;5.97;100.00;100899.69;4986275;28;20414;-77
2023/02/18 00:50:45;;;;;;;25.55;12.38;;;;;;;5.65;100.00;100821.59;4978749;28;20088;-76
2023/02/18 00:53:11;;;;;;;31.95;12.95;;;;;;;6.22;100.00;100927.28;4983830;28;20034;-80
2023/02/18 00:55:42;;;;;;;20.08;12.10;;;;;;;5.32;100.00;100775.59;4994461;28;20050;-76
2023/02/18 00:58:07;;;;;;;18.23;12.80;;;;;;;5.32;100.00;100772.13;4992188;28;20057;-78
2023/02/18 01:00:33;;;;;;;16.30;10.82;;;;;;;5.62;100.00;100801.56;4984088;28;20054;-78
2023/02/18 01:02:58;;;;;;;24.17;15.45;;;;;;;6.34;100.00;100898.91;4988895;28;20076;-75
2023/02/18 01:05:24;;;;;;;25.33;15.27;;;;;;;6.36;100.00;100904.19;4984909;28;21317;-77
2023/02/18 01:07:49;;;;;;;19.25;12.98;;;;;;;6.13;100.00;100858.47;4985295;28;20249;-75
2023/02/18 01:10:15;;;;;;;39.08;11.23;;;;;;;6.27;100.00;100869.22;4978647;28;20046;-76
2023/02/18 01:12:41;;;;;;;25.77;16.25;;;;;;;5.80;100.00;100789.84;4990522;28;20461;-77
2023/02/18 01:15:07;;;;;;;19.92;13.27;;;;;;;5.66;100.00;100759.13;4982740;28;20406;-78
2023/02/18 01:17:32;;;;;;;24.30;14.45;;;;;;;6.07;100.00;100847.88;4989011;28;20803;-77
2023/02/18 01:19:58;;;;;;;28.90;17.67;;;;;;;6.39;100.00;100883.38;4983619;28;20043;-77
2023/02/18 01:22:24;;;;;;;20.67;13.13;;;;;;;6.24;100.00;100852.63;4983303;28;21261;-77
2023/02/18 01:24:50;;;;;;;27.92;18.38;;;;;;;5.87;100.00;100753.56;4987527;28;20053;-79
2023/02/18 01:27:15;;;;;;;22.25;11.70;;;;;;;6.41;100.00;100840.88;4985759;28;20054;-76
2023/02/18 01:29:41;;;;;;;25.95;18.25;;;;;;;6.55;100.00;100870.78;4984053;28;20054;-75
2023/02/18 01:32:06;;;;;;;18.10;11.65;;;;;;;6.39;100.00;100860.84;4987819;28;20137;-75
2023/02/18 01:34:32;;;;;;;23.20;11.70;;;;;;;5.73;100.00;100728.91;4982478;28;20765;-75
2023/02/18 01:36:58;;;;;;;26.33;17.98;;;;;;;6.38;100.00;100851.25;4978551;28;20054;-75
2023/02/18 01:39:23;;;;;;;19.38;13.18;;;;;;;6.55;100.00;100864.66;4986537;28;20046;-76
2023/02/18 01:41:49;;;;;;;36.05;19.77;;;;;;;5.82;100.00;100743.91;4988733;28;20034;-75
2023/02/18 01:44:26;;;;;;;20.27;12.52;;;;;;;6.50;100.00;100861.94;4989740;28;20046;-76
2023/02/18 01:46:52;;;;;;;27.60;20.05;;;;;;;6.48;100.00;100852.34;5002163;28;20069;-75
2023/02/18 01:49:33;;;;;;;22.17;13.38;;;;;;;6.43;100.00;100852.22;5002623;28;20053;-75
2023/02/18 01:52:08;;;;;;;25.27;14.35;;;;;;;5.75;100.00;100710.75;4990897;28;20085;-75
2023/02/18 01:54:38;;;;;;;22.40;13.93;;;;;;;6.28;100.00;100821.47;4987561;28;20042;-75
2023/02/18 01:57:11;;;;;;;34.70;21.23;;;;;;;5.57;100.00;100686.03;4986085;28;20113;-77
2023/02/18 01:59:39;;;;;;;23.35;13.63;;;;;;;6.43;100.00;100820.94;4989217;28;20126;-77
2023/02/18 02:02:09;;;;;;;35.75;21.45;;;;;;;6.42;100.00;100818.31;4985553;28;20228;-79
2023/02/18 02:04:35;;;;;;;31.33;21.80;;;;;;;6.07;100.00;100797.50;4979240;28;20050;-77
2023/02/18 02:07:01;;;;;;;24.05;15.38;;;;;;;5.55;100.00;100687.72;4984427;28;20105;-77
2023/02/18 02:09:29;;;;;;;33.10;22.60;;;;;;;5.95;100.00;100732.97;4987815;28;20050;-78
2023/02/18 02:12:09;;;;;;;35.92;24.63;;;;;;;6.40;100.00;100822.63;4988318;28;20050;-76
2023/02/18 02:14:47;;;;;;;30.30;18.50;;;;;;;6.47;100.00;100827.13;4982556;28;20038;-78
2023/02/18 02:17:18;;;;;;;28.25;15.57;;;;;;;6.42;100.00;100827.00;4983760;28;20073;-77
2023/02/18 02:20:10;;;;;;;23.80;16.02;;;;;;;6.40;100.00;100820.00;4987941;28;20066;-78
2023/02/18 02:22:57;;;;;;;24.23;16.77;;;;;;;6.43;100.00;100841.78;4975188;28;20121;-78
2023/02/18 02:25:47;;;;;;;33.72;23.15;;;;;;;6.47;100.00;100834.94;4982253;28;20054;-79
2023/02/18 02:28:31;;;;;;;25.55;18.17;;;;;;;6.42;100.00;100834.84;4986332;28;20093;-77
2023/02/18 02:31:28;;;;;;;33.13;18.02;;;;;;;6.40;100.00;100823.50;4981437;28;20513;-79
2023/02/18 02:34:26;;;;;;;23.60;15.82;;;;;;;6.46;100.00;100817.53;4991120;28;20112;-80
2023/02/18 02:37:26;;;;;;;24.35;16.17;;;;;;;6.39;100.00;100820.84;4996397;28;20053;-78
2023/02/18 02:40:27;;;;;;;30.40;22.95;;;;;;;6.34;100.00;100815.50;4991190;28;20038;-79
2023/02/18 02:43:12;;;;;;;32.65;17.38;;;;;;;5.50;100.00;100674.59;4970481;28;20054;-78
2023/02/18 02:45:47;;;;;;;28.85;17.27;;;;;;;6.26;100.00;100820.56;4971924;28;20069;-79
2023/02/18 02:48:24;;;;;;;28.92;18.13;;;;;;;6.34;100.00;100823.34;4999076;28;20058;-80
2023/02/18 02:51:11;;;;;;;32.05;18.23;;;;;;;6.37;100.00;100825.13;4983327;28;20035;-79
2023/02/18 02:53:40;;;;;;;32.00;17.83;;;;;;;6.19;100.00;100820.38;4988606;28;20038;-79
2023/02/18 02:56:15;;;;;;;37.38;25.90;;;;;;;6.06;100.00;100777.50;4984330;28;20050;-80
2023/02/18 02:58:42;;;;;;;40.15;26.55;;;;;;;5.43;100.00;100674.38;4990045;28;20050;-79
2023/02/18 03:01:36;;;;;;;33.13;18.77;;;;;;;6.05;100.00;100786.16;4986767;28;20046;-79
2023/02/18 03:04:38;;;;;;;27.23;19.23;;;;;;;6.40;100.00;100812.19;4981157;28;20077;-79
2023/02/18 03:07:07;;;;;;;30.38;18.42;;;;;;;6.45;100.00;100810.56;4986125;28;20081;-79
2023/02/18 03:09:49;;;;;;;33.88;19.45;;;;;;;6.06;100.00;100726.31;4986811;28;20089;-79
2023/02/18 03:12:29;;;;;;;36.65;26.88;;;;;;;5.86;100.00;100678.91;4984005;28;20046;-80
2023/02/18 03:15:24;;;;;;;37.72;21.48;;;;;;;6.45;100.00;100758.44;4987069;28;20026;-80
2023/02/18 03:18:09;;;;;;;42.20;29.42;;;;;;;5.86;100.00;100662.41;4987269;28;20398;-81
2023/02/18 03:20:38;;;;;;;40.38;22.67;;;;;;;5.80;100.00;100620.59;5004483;28;20145;-81
2023/02/18 03:23:16;;;;;;;41.47;29.55;;;;;;;5.75;100.00;100612.69;4979089;28;20498;-78
2023/02/18 03:25:43;;;;;;;43.22;25.25;;;;;;;6.34;100.00;100724.28;4988737;28;20050;-80
2023/02/18 03:28:14;;;;;;;33.97;24.48;;;;;;;6.32;100.00;100712.97;4986739;28;20109;-81
2023/02/18 03:30:48;;;;;;;40.25;24.35;;;;;;;6.54;100.00;100758.63;4981563;28;20059;-80
2023/02/18 03:33:17;;;;;;;43.05;31.73;;;;;;;5.91;100.00;100653.84;4981198;28;20054;-79
2023/02/18 03:35:45;;;;;;;43.10;26.23;;;;;;;5.78;100.00;100622.28;4988935;28;20150;-80
2023/02/18 03:38:10;;;;;;;43.85;34.50;;;;;;;6.44;100.00;100778.41;4988123;28;20018;-79
2023/02/18 03:40:36;;;;;;;41.63;33.08;;;;;;;6.42;100.00;100777.50;4982522;28;20054;-78
2023/02/18 03:43:01;;;;;;;48.95;33.05;;;;;;;6.39;100.00;100753.06;4981267;28;20046;-77
2023/02/18 03:45:27;;;;;;;38.03;23.88;;;;;;;5.49;100.00;100599.06;4986634;28;20486;-78
2023/02/18 03:47:52;;;;;;;35.17;23.52;;;;;;;6.40;100.00;100768.75;4981428;28;20042;-77
2023/02/18 03:50:18;;;;;;;42.47;32.53;;;;;;;5.60;100.00;100621.03;4984886;28;20039;-79
2023/02/18 03:52:44;;;;;;;46.60;35.88;;;;;;;5.58;100.00;100594.06;4984526;28;20116;-78
2023/02/18 03:55:09;;;;;;;43.63;34.78;;;;;;;5.70;100.00;100615.19;4983157;28;20191;-77
2023/02/18 03:57:35;;;;;;;35.97;21.42;;;;;;;6.25;100.00;100682.41;4982655;28;20069;-77
2023/02/18 04:00:01;;;;;;;31.55;23.20;;;;;;;6.53;100.00;100721.28;4984032;28;20475;-78
2023/02/18 04:02:26;;;;;;;44.17;24.05;;;;;;;5.74;100.00;100591.84;4982794;28;20474;-77
2023/02/18 04:04:52;;;;;;;43.25;31.60;;;;;;;6.41;100.00;100710.56;4985234;28;20462;-78
2023/02/18 04:07:18;;;;;;;40.35;23.23;;;;;;;6.57;100.00;100737.84;4981458;28;20046;-77
2023/02/18 04:09:43;;;;;;;53.08;32.80;;;;;;;6.70;100.00;100750.28;4982736;28;20046;-76
2023/02/18 04:12:09;;;;;;;45.35;34.17;;;;;;;6.61;100.00;100733.59;4978383;28;20059;-76
2023/02/18 04:14:34;;;;;;;35.67;22.00;;;;;;;6.40;100.00;100713.16;4984198;28;20414;-75
2023/02/18 04:17:00;;;;;;;31.85;21.27;;;;;;;5.75;100.00;100570.16;4988101;28;20137;-75
2023/02/18 04:19:26;;;;;;;46.50;32.60;;;;;;;5.86;100.00;100589.50;4980898;28;20137;-76
2023/02/18 04:21:51;;;;;;;43.13;32.38;;;;;;;6.58;100.00;100739.63;4980419;28;20129;-77
2023/02/18 04:24:17;;;;;;;31.45;23.73;;;;;;;6.52;100.00;100726.44;4981347;28;20142;-75
2023/02/18 04:26:42;;;;;;;44.13;23.65;;;;;;;6.37;100.00;100687.00;4981147;28;20239;-77
2023/02/18 04:29:08;;;;;;;43.33;31.77;;;;;;;5.95;100.00;100600.16;4985145;28;20058;-78
2023/02/18 04:31:33;;;;;;;44.72;30.27;;;;;;;5.72;100.00;100579.66;4983342;28;20129;-77
2023/02/18 04:33:59;;;;;;;39.40;21.77;;;;;;;5.52;100.00;100560.09;4983660;28;20050;-77
2023/02/18 04:36:24;;;;;;;44.88;32.55;;;;;;;6.05;100.00;100629.88;4974646;28;20061;-77
2023/02/18 04:38:50;;;;;;;39.35;23.30;;;;;;;6.43;100.00;100705.38;4987035;28;20125;-76
2023/02/18 04:41:15;;;;;;;28.75;22.40;;;;;;;5.92;100.00;100607.84;4982803;28;20046;-76
2023/02/18 04:43:40;;;;;;;34.75;20.55;;;;;;;5.86;100.00;100597.31;4981221;28;20043;-76
2023/02/18 04:46:06;;;;;;;42.38;30.65;;;;;;;6.33;100.00;100678.25;4981457;28;20073;-76
2023/02/18 04:48:33;;;;;;;45.47;29.27;;;;;;;5.83;100.00;100598.13;4979461;28;20058;-75
2023/02/18 04:50:59;;;;;;;38.30;29.52;;;;;;;6.28;100.00;100679.88;4983009;28;20219;-76
2023/02/18 04:53:25;;;;;;;42.88;20.42;;;;;;;6.43;100.00;100706.25;4983534;28;20061;-76
2023/02/18 04:55:51;;;;;;;32.22;20.35;;;;;;;6.42;100.00;100704.50;4984003;28;20050;-79
2023/02/18 04:58:18;;;;;;;38.92;29.20;;;;;;;6.29;100.00;100674.69;4987202;28;20536;-80
2023/02/18 05:00:44;;;;;;;40.03;20.30;;;;;;;6.19;100.00;100659.72;4974662;28;20047;-77
2023/02/18 05:03:09;;;;;;;31.13;20.40;;;;;;;6.51;100.00;100709.06;4980555;28;20061;-77
2023/02/18 05:05:35;;;;;;;36.33;27.42;;;;;;;5.62;100.00;100577.69;4981878;28;20129;-79
2023/02/18 05:08:01;;;;;;;52.33;29.33;;;;;;;6.46;100.00;100723.69;4979587;28;20109;-78
2023/02/18 05:10:26;;;;;;;31.60;20.10;;;;;;;6.22;100.00;100695.38;4982422;28;20042;-79
2023/02/18 05:12:52;;;;;;;29.33;19.08;;;;;;;5.53;100.00;100610.44;4990337;28;20050;-79
2023/02/18 05:15:17;;;;;;;38.47;25.83;;;;;;;6.13;100.00;100696.94;4994908;28;20062;-79
2023/02/18 05:17:43;;;;;;;38.80;27.95;;;;;;;5.38;100.00;100587.53;4979210;28;20056;-76
2023/02/18 05:20:10;;;;;;;38.33;21.90;;;;;;;6.32;100.00;100719.06;4971781;28;20053;-77
2023/02/18 05:22:35;;;;;;;40.47;20.33;;;;;;;5.99;100.00;100679.22;4981278;28;20128;-78
2023/02/18 05:25:01;;;;;;;32.35;21.13;;;;;;;5.96;100.00;100674.81;4978757;28;20440;-79
2023/02/18 05:27:26;;;;;;;38.10;26.23;;;;;;;6.15;100.00;100693.47;4982918;28;20095;-79
2023/02/18 05:29:52;;;;;;;40.92;26.65;;;;;;;5.39;100.00;100566.75;4981081;28;20026;-76
2023/02/18 05:32:17;;;;;;;24.20;17.65;;;;;;;6.27;100.00;100722.41;4983213;28;20047;-77
2023/02/18 05:34:43;;;;;;;27.42;20.20;;;;;;;5.66;100.00;100599.44;4980520;28;20061;-77
2023/02/18 05:37:08;;;;;;;32.13;19.50;;;;;;;6.25;100.00;100716.28;4979411;28;20084;-76
2023/02/18 05:39:34;;;;;;;24.88;18.80;;;;;;;5.32;100.00;100546.63;4984484;28;20486;-76
2023/02/18 05:41:59;;;;;;;32.25;19.73;;;;;;;6.04;100.00;100677.59;4978724;28;20053;-76
2023/02/18 05:44:31;;;;;;;30.25;20.25;;;;;;;5.70;100.00;100619.50;4983770;28;20031;-78
2023/02/18 05:47:02;;;;;;;40.47;27.83;;;;;;;6.13;100.00;100673.50;4980298;28;20076;-78
2023/02/18 05:49:29;;;;;;;39.40;25.30;;;;;;;6.46;100.00;100721.97;4978956;28;20112;-77
2023/02/18 05:51:54;;;;;;;31.02;25.65;;;;;;;6.29;100.00;100687.72;4982259;28;20172;-77
2023/02/18 05:54:20;;;;;;;24.00;18.17;;;;;;;5.66;100.00;100563.88;4985227;28;20562;-76
2023/02/18 05:56:46;;;;;;;24.45;18.80;;;;;;;6.28;100.00;100691.19;4978388;28;20038;-78
2023/02/18 05:59:11;;;;;;;27.77;18.13;;;;;;;6.49;100.00;100724.66;4981720;28;20045;-78
2023/02/18 06:01:37;;;;;;;36.65;25.27;;;;;;;5.65;100.00;100577.75;4986419;28;20120;-77
2023/02/18 06:04:02;;;;;;;33.17;26.45;;;;;;;5.45;100.00;100559.06;4986739;28;20042;-79
2023/02/18 06:06:28;;;;;;;28.33;17.80;;;;;;;6.52;100.00;100727.31;4988910;28;20061;-82
2023/02/18 06:08:53;;;;;;;28.92;18.13;;;;;;;6.55;100.00;100722.19;4992300;28;20086;-83
2023/02/18 06:11:19;;;;;;;38.47;24.80;;;;;;;5.78;100.00;100586.69;4988641;28;20073;-82
2023/02/18 06:13:44;;;;;;;30.75;17.55;;;;;;;5.80;100.00;100592.81;4989252;28;20193;-81
2023/02/18 06:16:10;;;;;;;33.33;24.60;;;;;;;6.76;100.00;100742.59;4987425;28;20062;-79
2023/02/18 06:18:35;;;;;;;27.15;18.52;;;;;;;5.54;100.00;100527.19;4986003;28;20046;-77
2023/02/18 06:21:01;;;;;;;24.73;16.63;;;;;;;5.81;100.00;100596.34;4987171;28;20387;-79
2023/02/18 06:23:26;;;;;;;38.17;24.60;;;;;;;6.35;100.00;100702.63;4988882;28;20030;-78
2023/02/18 06:25:52;;;;;;;32.30;23.23;;;;;;;5.92;100.00;100618.25;4985980;28;20141;-79
2023/02/18 06:28:17;;;;;;;35.70;24.13;;;;;;;6.11;100.00;100632.59;4973252;28;20170;-79
2023/02/18 06:30:44;;;;;;;32.03;22.25;;;;;;;6.76;100.00;100762.56;4981808;28;20050;-78
2023/02/18 06:33:09;;;;;;;29.08;17.05;;;;;;;6.60;100.00;100740.50;4984729;28;20081;-76
2023/02/18 06:35:36;;;;;;;29.80;17.15;;;;;;;6.12;100.00;100644.78;4991010;28;20029;-77
2023/02/18 06:38:01;;;;;;;28.20;20.52;;;;;;;6.75;100.00;100743.44;5001100;28;20403;-76
2023/02/18 06:40:27;;;;;;;37.20;23.58;;;;;;;6.83;100.00;100746.19;4989295;28;20077;-77
2023/02/18 06:42:52;;;;;;;33.80;22.08;;;;;;;5.96;100.00;100591.47;4995569;28;20175;-76
2023/02/18 06:45:18;;;;;;;31.58;23.35;;;;;;;6.85;100.00;100736.69;4985773;28;20043;-78
2023/02/18 06:47:43;;;;;;;36.83;22.08;;;;;;;6.96;100.00;100743.00;4990471;28;20164;-76
2023/02/18 06:50:09;;;;;;;29.10;21.77;;;;;;;6.18;100.00;100594.53;4987538;28;20058;-79
2023/02/18 06:52:36;;;;;;;34.08;22.65;;;;;;;6.22;100.00;100605.06;4987328;28;20490;-79
2023/02/18 06:55:04;;;;;;;22.27;14.48;;;;;;;6.99;100.00;100731.75;4979705;28;20042;-77
2023/02/18 06:57:30;;;;;;;32.92;21.25;;;;;;;7.00;100.00;100714.34;4981780;28;20043;-79
2023/02/18 06:59:55;;;;;;;30.27;22.08;;;;;;;6.48;100.00;100605.56;4983587;28;20055;-80
2023/02/18 07:02:20;;;;;;;33.30;24.02;;;;;;;7.27;100.00;100735.75;4981327;28;20049;-79
2023/02/18 07:04:46;;;;;;;32.25;23.15;;;;;;;6.30;100.00;100594.81;4984724;28;20117;-77
2023/02/18 07:07:11;;;;;;;30.95;21.15;;;;;;;6.40;100.00;100599.34;4995357;28;20481;-76
2023/02/18 07:09:37;;;;;;;38.10;23.45;;;;;;;6.48;100.00;100604.69;5011427;28;20088;-78
2023/02/18 07:12:03;;;;;;;32.08;21.27;;;;;;;6.48;100.00;100610.78;5001964;28;20056;-80
2023/02/18 07:14:28;;;;;;;43.45;21.17;;;;;;;6.48;100.00;100602.09;5003656;28;20084;-78
2023/02/18 07:16:54;;;;;;;35.45;23.27;;;;;;;6.25;100.00;100545.22;4985718;28;20053;-79
2023/02/18 07:19:19;;;;;;;28.75;20.17;;;;;;;7.25;100.00;100711.34;4983638;28;20053;-76
2023/02/18 07:21:44;;;;;;;30.83;21.92;;;;;;;7.37;100.00;100737.72;4981017;28;20038;-78
2023/02/18 07:24:10;;;;;;;28.90;20.98;;;;;;;7.38;100.00;100725.53;4981571;28;20046;-79
2023/02/18 07:26:35;;;;;;;35.97;21.60;;;;;;;7.32;100.00;100710.63;4980290;28;20045;-78
2023/02/18 07:29:01;;;;;;;30.42;20.38;;;;;;;7.23;100.00;100699.13;4983982;28;20049;-79
2023/02/18 07:31:26;;;;;;;30.98;21.33;;;;;;;7.66;100.00;100739.94;4981753;28;20716;-78
2023/02/18 07:33:52;;;;;;;32.30;19.52;;;;;;;6.84;100.00;100614.97;4986422;28;20297;-78
2023/02/18 07:36:17;;;;;;;32.20;22.30;;;;;;;6.91;100.00;100637.69;4982808;28;20406;-80
2023/02/18 07:38:43;;;;;;;33.63;20.80;;;;;;;7.63;100.00;100716.38;4994534;28;20038;-78
2023/02/18 07:41:20;;;;;;;41.97;21.35;;;;;;;7.14;100.00;100629.38;4985588;28;20176;-78
2023/02/18 07:43:46;;;;;;;28.40;20.50;;;;;;;7.76;100.00;100739.25;4983529;28;20046;-79
2023/02/18 07:46:12;;;;;;;31.77;21.33;;;;;;;7.93;100.00;100736.03;4979442;28;20042;-78
2023/02/18 07:48:37;;;;;;;33.08;21.88;;;;;;;7.77;100.00;100700.94;4987581;28;20058;-76
2023/02/18 07:51:08;;;;;;;34.03;22.65;;;;;;;7.05;100.00;100582.28;4985808;28;20057;-76
2023/02/18 07:53:34;;;;;;;28.63;20.40;;;;;;;7.15;100.00;100605.06;4983779;28;20039;-80
2023/02/18 07:56:00;;;;;;;32.28;21.90;;;;;;;7.97;100.00;100724.78;4990451;28;20058;-82
2023/02/18 07:58:31;;;;;;;33.80;23.33;;;;;;;7.95;100.00;100714.28;4983225;28;20050;-81
2023/02/18 08:00:57;;;;;;;35.72;20.48;;;;;;;8.00;100.00;100723.06;4991236;28;21158;-81
2023/02/18 08:03:25;;;;;;;36.17;22.38;;;;;;;8.15;100.00;100722.44;4996043;28;20083;-79
2023/02/18 08:05:52;;;;;;;29.10;21.90;;;;;;;7.98;100.00;100719.59;4982615;28;20038;-78
2023/02/18 08:08:21;;;;;;;28.90;21.40;;;;;;;7.95;100.00;100711.66;4986281;28;20184;-77
2023/02/18 08:10:48;;;;;;;28.85;21.23;;;;;;;8.13;100.00;100725.88;4990320;28;20454;-77
2023/02/18 08:13:13;;;;;;;39.80;21.02;;;;;;;7.61;100.00;100631.94;4984128;28;20410;-79
2023/02/18 08:15:40;;;;;;;30.15;19.92;;;;;;;8.25;100.00;100710.38;4987101;28;20141;-75
2023/02/18 08:18:07;;;;;;;28.95;21.75;;;;;;;8.18;100.00;100693.72;4981312;28;20051;-78
2023/02/18 08:20:36;;;;;;;31.92;20.83;;;;;;;8.27;100.00;100718.25;4980154;28;20356;-77
2023/02/18 08:23:03;;;;;;;36.78;21.13;;;;;;;8.21;100.00;100677.19;4979566;28;20085;-77
2023/02/18 08:25:29;;;;;;;31.85;21.77;;;;;;;8.32;100.00;100701.75;4977014;28;20065;-77
2023/02/18 08:27:54;;;;;;;37.78;22.30;;;;;;;8.37;100.00;100700.09;4980423;28;20042;-77
2023/02/18 08:30:20;;;;;;;33.53;21.15;;;;;;;8.29;100.00;100687.75;4983863;28;20421;-78
2023/02/18 08:32:45;;;;;;;33.15;21.60;;;;;;;8.16;100.00;100642.28;4992819;28;20084;-78
2023/02/18 08:35:12;;;;;;;30.33;21.15;;;;;;;8.38;100.00;100664.34;5000010;28;20038;-77
2023/02/18 08:37:38;;;;;;;33.65;20.55;;;;;;;8.09;100.00;100594.28;4990557;28;20046;-80
2023/02/18 08:40:04;;;;;;;34.42;21.58;;;;;;;8.67;100.00;100704.00;4988980;28;20526;-82
2023/02/18 08:42:30;;;;;;;43.30;21.02;;;;;;;8.14;100.00;100602.19;4987313;28;20070;-82
2023/02/18 08:44:55;;;;;;;31.55;21.27;;;;;;;8.78;100.00;100664.88;4980573;28;20124;-80
2023/02/18 08:47:21;;;;;;;45.17;23.08;;;;;;;8.83;100.00;100676.28;4987316;28;20034;-79
2023/02/18 08:49:46;;;;;;;31.50;20.17;;;;;;;8.79;100.00;100674.50;4987255;28;20049;-80
2023/02/18 08:52:12;;;;;;;32.33;20.52;;;;;;;8.08;100.00;100545.50;4983957;28;20054;-79
2023/02/18 08:54:38;;;;;;;46.05;20.42;;;;;;;8.32;100.00;100552.75;4985178;28;20049;-80
2023/02/18 08:57:03;;;;;;;29.42;19.92;;;;;;;8.49;100.00;100593.91;4986039;28;20905;-78
2023/02/18 08:59:28;;;;;;;33.47;21.38;;;;;;;9.06;100.00;100673.88;4979778;28;20026;-80
2023/02/18 09:01:54;;;;;;;24.77;19.20;;;;;;;9.11;100.00;100685.31;4979375;28;20050;-79
2023/02/18 09:04:20;;;;;;;30.80;20.33;;;;;;;9.17;100.00;100710.66;4980394;28;20102;-80
2023/02/18 09:06:46;;;;;;;37.00;21.63;;;;;;;8.74;100.00;100603.78;4978699;28;20073;-76
2023/02/18 09:09:12;;;;;;;32.65;21.52;;;;;;;9.06;100.00;100660.81;4978124;28;20058;-77
2023/02/18 09:11:38;;;;;;;32.33;19.70;;;;;;;9.12;100.00;100658.25;4982744;28;20394;-76
2023/02/18 09:14:04;;;;;;;23.90;18.75;;;;;;;8.62;100.00;100551.34;4982954;28;20120;-75
2023/02/18 09:16:29;;;;;;;28.40;18.63;;;;;;;9.28;100.00;100668.00;4987066;28;20061;-76
2023/02/18 09:18:57;;;;;;;29.27;18.38;;;;;;;9.39;100.00;100680.31;4988753;28;20054;-76
2023/02/18 09:21:23;;;;;;;27.60;18.65;;;;;;;9.50;100.00;100679.59;4986654;28;20054;-78
2023/02/18 09:23:50;;;;;;;27.20;18.05;;;;;;;8.77;100.00;100555.84;4982519;28;20038;-77
2023/02/18 09:26:17;;;;;;;31.02;19.02;;;;;;;9.55;100.00;100670.84;4988292;28;20046;-87
2023/02/18 09:28:43;;;;;;;28.33;19.45;;;;;;;9.55;100.00;100663.88;4986500;28;20077;-84
2023/02/18 09:31:16;;;;;;;24.08;18.45;;;;;;;9.64;100.00;100671.81;4987392;28;20070;-82
2023/02/18 09:33:45;;;;;;;33.00;18.20;;;;;;;8.93;100.00;100554.25;4986006;28;20053;-86
2023/02/18 09:36:11;;;;;;;26.35;17.65;;;;;;;9.63;100.00;100666.56;4995155;28;20088;-84
2023/02/18 09:38:36;;;;;;;25.30;18.33;;;;;;;9.81;100.00;100698.16;4995843;28;20070;-89
2023/02/18 09:41:07;;;;;;;29.95;19.52;;;;;;;9.93;100.00;100687.75;4991070;28;20478;-90
2023/02/18 09:43:40;;;;;;;27.98;19.42;;;;;;;9.92;100.00;100683.38;4969032;28;20047;-82
2023/02/18 09:46:21;;;;;;;31.58;18.73;;;;;;;9.06;100.00;100522.97;4986047;28;20051;-83
2023/02/18 09:48:47;;;;;;;27.88;19.52;;;;;;;9.91;100.00;100667.66;4983229;28;20059;-82
2023/02/18 09:51:15;;;;;;;28.13;18.50;;;;;;;9.31;100.00;100567.66;4985351;28;20050;-80
2023/02/18 09:53:44;;;;;;;26.67;18.58;;;;;;;9.20;100.00;100519.56;4987421;28;20417;-82
2023/02/18 09:56:16;;;;;;;28.75;18.40;;;;;;;9.94;100.00;100629.22;4986864;28;20057;-80
2023/02/18 09:58:44;;;;;;;27.67;19.75;;;;;;;10.02;100.00;100645.00;4979071;28;20252;-79
2023/02/18 10:01:15;;;;;;;32.90;18.77;;;;;;;10.22;100.00;100662.59;4979936;28;20061;-80
2023/02/18 10:03:42;;;;;;;27.80;18.83;;;;;;;9.81;100.00;100595.97;4981557;28;20042;-79
2023/02/18 10:06:24;;;;;;;25.58;17.30;;;;;;;9.58;100.00;100532.06;4986160;28;20058;-80
2023/02/18 10:08:53;;;;;;;24.33;16.15;;;;;;;10.40;100.00;100660.09;4989144;28;20050;-81
2023/02/18 10:11:32;;;;;;;30.75;19.40;;;;;;;10.44;100.00;100642.59;5004927;28;20476;-80
2023/02/18 10:14:00;;;;;;;26.27;17.67;;;;;;;10.38;100.00;100621.63;5007157;28;20050;-85
2023/02/18 10:16:26;;;;;;;21.90;18.45;;;;;;;10.58;100.00;100654.03;5000315;28;20779;-83
2023/02/18 10:18:58;;;;;;;28.08;18.38;;;;;;;10.46;100.00;100622.50;4999816;28;20072;-79
2023/02/18 10:21:31;;;;;;;26.90;18.10;;;;;;;10.68;100.00;100657.59;5001556;28;20038;-82
2023/02/18 10:24:13;;;;;;;27.80;17.27;;;;;;;10.26;100.00;100569.97;4998691;28;20053;-82
2023/02/18 10:26:39;;;;;;;24.52;16.50;;;;;;;10.16;100.00;100545.47;4984492;28;20030;-84
2023/02/18 10:29:13;;;;;;;32.47;19.00;;;;;;;10.82;100.00;100640.13;5004486;28;20061;-81
2023/02/18 10:31:44;;;;;;;24.65;17.55;;;;;;;10.83;100.00;100638.38;4986977;28;20049;-80
2023/02/18 10:34:40;;;;;;;25.05;18.05;;;;;;;10.99;100.00;100646.28;4985045;28;20088;-78
2023/02/18 10:37:27;;;;;;;27.65;16.77;;;;;;;11.07;100.00;100629.66;4950031;28;20604;-79
2023/02/18 10:39:58;;;;;;;27.38;17.95;;;;;;;11.13;100.00;100629.69;4985200;28;20057;-80
2023/02/18 10:42:39;;;;;;;26.80;17.75;;;;;;;11.01;100.00;100627.94;5001855;28;20046;-80
2023/02/18 10:45:30;;;;;;;33.42;17.05;;;;;;;11.13;100.00;100646.31;4997839;28;20120;-79
2023/02/18 10:48:22;;;;;;;34.70;18.60;;;;;;;11.18;100.00;100617.44;4980883;28;20110;-81
2023/02/18 10:50:48;;;;;;;39.75;17.08;;;;;;;11.26;100.00;100618.34;4971339;28;20046;-80
2023/02/18 10:53:22;;;;;;;24.65;16.58;;;;;;;11.34;100.00;100613.06;4976413;28;20120;-81
2023/02/18 10:55:48;;;;;;;20.80;17.40;;;;;;;11.02;100.00;100557.91;5001778;28;20062;-80
2023/02/18 10:58:35;;;;;;;20.63;16.60;;;;;;;10.64;100.00;100482.63;5003546;28;20057;-81
2023/02/18 11:01:11;;;;;;;23.58;17.55;;;;;;;11.15;100.00;100541.28;5002860;28;20050;-80
2023/02/18 11:03:46;;;;;;;27.42;19.80;;;;;;;11.39;100.00;100578.03;4997309;28;20075;-80
2023/02/18 11:06:20;;;;;;;26.98;17.75;;;;;;;10.92;100.00;100494.00;5000421;28;20058;-80
2023/02/18 11:08:48;;;;;;;33.47;16.52;;;;;;;11.66;100.00;100599.91;4983169;28;20483;-80
2023/02/18 11:11:23;;;;;;;28.88;18.88;;;;;;;10.99;100.00;100498.38;4989874;28;20034;-78
2023/02/18 11:13:57;;;;;;;24.30;16.98;;;;;;;10.98;100.00;100484.38;4981364;28;20518;-79
2023/02/18 11:16:45;;;;;;;36.25;17.67;;;;;;;10.91;100.00;100464.28;4986115;28;20153;-78
2023/02/18 11:19:33;;;;;;;29.10;17.67;;;;;;;11.14;100.00;100487.88;4983057;28;20034;-79